sensor_id;sensor_type;location;lat;lon;timestamp;temperature;humidity
25877;DHT22;13692;47.480;19.216;2023-04-03T00:01:07;9.00;99.90
25877;DHT22;13692;47.480;19.216;2023-04-03T00:03:34;8.90;99.90
25877;DHT22;13692;47.480;19.216;2023-04-03T00:06:03;8.90;99.90
25877;DHT22;13692;47.480;19.216;2023-04-03T00:08:30;8.90;99.90
25877;DHT22;13692;47.480;19.216;2023-04-03T00:10:57;8.80;99.90
25877;DHT22;13692;47.480;19.216;2023-04-03T00:13:24;8.80;99.90
25877;DHT22;13692;47.480;19.216;2023-04-03T00:15:52;8.70;99.90
25877;DHT22;13692;47.480;19.216;2023-04-03T00:18:20;8.70;99.90
25877;DHT22;13692;47.480;19.216;2023-04-03T00:20:47;8.70;99.90
25877;DHT22;13692;47.480;19.216;2023-04-03T00:23:14;8.70;99.90
25877;DHT22;13692;47.480;19.216;2023-04-03T00:25:42;8.60;99.90
25877;DHT22;13692;47.480;19.216;2023-04-03T00:28:09;8.50;99.90
25877;DHT22;13692;47.480;19.216;2023-04-03T00:30:36;8.50;99.90
25877;DHT22;13692;47.480;19.216;2023-04-03T00:33:04;8.50;99.90
25877;DHT22;13692;47.480;19.216;2023-04-03T00:35:31;8.40;99.90
25877;DHT22;13692;47.480;19.216;2023-04-03T00:37:58;8.40;99.90
25877;DHT22;13692;47.480;19.216;2023-04-03T00:40:26;8.40;99.90
25877;DHT22;13692;47.480;19.216;2023-04-03T00:42:59;8.30;99.90
25877;DHT22;13692;47.480;19.216;2023-04-03T00:45:38;8.30;99.90
25877;DHT22;13692;47.480;19.216;2023-04-03T00:48:08;8.30;99.90
25877;DHT22;13692;47.480;19.216;2023-04-03T00:50:39;8.20;99.90
25877;DHT22;13692;47.480;19.216;2023-04-03T00:53:09;8.10;99.90
25877;DHT22;13692;47.480;19.216;2023-04-03T00:55:38;8.10;99.90
25877;DHT22;13692;47.480;19.216;2023-04-03T00:58:06;8.10;99.90
25877;DHT22;13692;47.480;19.216;2023-04-03T01:00:36;8.00;99.90
25877;DHT22;13692;47.480;19.216;2023-04-03T01:03:04;7.90;99.90
25877;DHT22;13692;47.480;19.216;2023-04-03T01:05:31;7.90;99.90
25877;DHT22;13692;47.480;19.216;2023-04-03T01:07:59;7.90;99.90
25877;DHT22;13692;47.480;19.216;2023-04-03T01:10:26;7.80;99.90
25877;DHT22;13692;47.480;19.216;2023-04-03T01:12:54;7.80;99.90
25877;DHT22;13692;47.480;19.216;2023-04-03T01:15:23;7.80;99.90
25877;DHT22;13692;47.480;19.216;2023-04-03T01:17:55;7.80;99.90
25877;DHT22;13692;47.480;19.216;2023-04-03T01:25:50;7.60;99.90
25877;DHT22;13692;47.480;19.216;2023-04-03T01:28:22;7.60;99.90
25877;DHT22;13692;47.480;19.216;2023-04-03T01:31:22;7.60;99.90
25877;DHT22;13692;47.480;19.216;2023-04-03T01:33:51;7.60;99.90
25877;DHT22;13692;47.480;19.216;2023-04-03T01:36:25;7.60;99.90
25877;DHT22;13692;47.480;19.216;2023-04-03T01:38:53;7.60;99.90
25877;DHT22;13692;47.480;19.216;2023-04-03T01:41:21;7.70;99.90
25877;DHT22;13692;47.480;19.216;2023-04-03T01:43:48;7.70;99.90
25877;DHT22;13692;47.480;19.216;2023-04-03T01:46:16;7.80;99.90
25877;DHT22;13692;47.480;19.216;2023-04-03T01:48:43;7.80;99.90
25877;DHT22;13692;47.480;19.216;2023-04-03T01:51:11;7.80;99.90
25877;DHT22;13692;47.480;19.216;2023-04-03T01:53:38;7.80;99.90
25877;DHT22;13692;47.480;19.216;2023-04-03T01:56:05;7.80;99.90
25877;DHT22;13692;47.480;19.216;2023-04-03T01:58:32;7.80;99.90
25877;DHT22;13692;47.480;19.216;2023-04-03T02:00:59;7.80;99.90
25877;DHT22;13692;47.480;19.216;2023-04-03T02:03:27;7.80;99.90
25877;DHT22;13692;47.480;19.216;2023-04-03T02:05:54;7.80;99.90
25877;DHT22;13692;47.480;19.216;2023-04-03T02:08:21;7.80;99.90
25877;DHT22;13692;47.480;19.216;2023-04-03T02:10:49;7.80;99.90
25877;DHT22;13692;47.480;19.216;2023-04-03T02:13:17;7.80;99.90
25877;DHT22;13692;47.480;19.216;2023-04-03T02:15:44;7.80;99.90
25877;DHT22;13692;47.480;19.216;2023-04-03T02:18:12;7.80;99.90
25877;DHT22;13692;47.480;19.216;2023-04-03T02:20:39;7.70;99.90
25877;DHT22;13692;47.480;19.216;2023-04-03T02:23:07;7.70;99.90
25877;DHT22;13692;47.480;19.216;2023-04-03T02:25:33;7.70;99.90
25877;DHT22;13692;47.480;19.216;2023-04-03T02:28:04;7.70;99.90
25877;DHT22;13692;47.480;19.216;2023-04-03T02:30:31;7.70;99.90
25877;DHT22;13692;47.480;19.216;2023-04-03T02:32:58;7.70;99.90
25877;DHT22;13692;47.480;19.216;2023-04-03T02:35:25;7.60;99.90
25877;DHT22;13692;47.480;19.216;2023-04-03T02:37:52;7.60;99.90
25877;DHT22;13692;47.480;19.216;2023-04-03T02:40:19;7.60;99.90
25877;DHT22;13692;47.480;19.216;2023-04-03T02:42:46;7.60;99.90
25877;DHT22;13692;47.480;19.216;2023-04-03T02:45:12;7.60;99.90
25877;DHT22;13692;47.480;19.216;2023-04-03T02:47:39;7.60;99.90
25877;DHT22;13692;47.480;19.216;2023-04-03T02:50:07;7.50;99.90
25877;DHT22;13692;47.480;19.216;2023-04-03T02:52:34;7.50;99.90
25877;DHT22;13692;47.480;19.216;2023-04-03T02:55:01;7.50;99.90
25877;DHT22;13692;47.480;19.216;2023-04-03T02:57:28;7.50;99.90
25877;DHT22;13692;47.480;19.216;2023-04-03T02:59:55;7.50;99.90
25877;DHT22;13692;47.480;19.216;2023-04-03T03:02:22;7.40;99.90
25877;DHT22;13692;47.480;19.216;2023-04-03T03:04:49;7.40;99.90
25877;DHT22;13692;47.480;19.216;2023-04-03T03:07:16;7.40;99.90
25877;DHT22;13692;47.480;19.216;2023-04-03T03:09:43;7.40;99.90
25877;DHT22;13692;47.480;19.216;2023-04-03T03:12:09;7.40;99.90
25877;DHT22;13692;47.480;19.216;2023-04-03T03:14:36;7.40;99.90
25877;DHT22;13692;47.480;19.216;2023-04-03T03:17:03;7.40;99.90
25877;DHT22;13692;47.480;19.216;2023-04-03T03:19:30;7.40;99.90
25877;DHT22;13692;47.480;19.216;2023-04-03T03:21:57;7.40;99.90
25877;DHT22;13692;47.480;19.216;2023-04-03T03:24:24;7.40;99.90
25877;DHT22;13692;47.480;19.216;2023-04-03T03:26:51;7.40;99.90
25877;DHT22;13692;47.480;19.216;2023-04-03T03:29:18;7.40;99.90
25877;DHT22;13692;47.480;19.216;2023-04-03T03:31:45;7.40;99.90
25877;DHT22;13692;47.480;19.216;2023-04-03T03:34:12;7.30;99.90
25877;DHT22;13692;47.480;19.216;2023-04-03T03:36:39;7.30;99.90
25877;DHT22;13692;47.480;19.216;2023-04-03T03:39:07;7.30;99.90
25877;DHT22;13692;47.480;19.216;2023-04-03T03:41:34;7.30;99.90
25877;DHT22;13692;47.480;19.216;2023-04-03T03:44:01;7.20;99.90
25877;DHT22;13692;47.480;19.216;2023-04-03T03:46:28;7.20;99.90
25877;DHT22;13692;47.480;19.216;2023-04-03T03:48:55;7.20;99.90
25877;DHT22;13692;47.480;19.216;2023-04-03T03:51:22;7.20;99.90
25877;DHT22;13692;47.480;19.216;2023-04-03T03:53:49;7.20;99.90
25877;DHT22;13692;47.480;19.216;2023-04-03T03:56:16;7.20;99.90
25877;DHT22;13692;47.480;19.216;2023-04-03T03:58:43;7.20;99.90
25877;DHT22;13692;47.480;19.216;2023-04-03T04:01:10;7.10;99.90
25877;DHT22;13692;47.480;19.216;2023-04-03T04:03:37;7.10;99.90
25877;DHT22;13692;47.480;19.216;2023-04-03T04:06:04;7.10;99.90
25877;DHT22;13692;47.480;19.216;2023-04-03T04:08:31;7.00;99.90
25877;DHT22;13692;47.480;19.216;2023-04-03T04:10:58;7.00;99.90
25877;DHT22;13692;47.480;19.216;2023-04-03T04:13:25;7.00;99.90
25877;DHT22;13692;47.480;19.216;2023-04-03T04:15:51;7.00;99.90
25877;DHT22;13692;47.480;19.216;2023-04-03T04:18:18;7.00;99.90
25877;DHT22;13692;47.480;19.216;2023-04-03T04:20:46;6.90;99.90
25877;DHT22;13692;47.480;19.216;2023-04-03T04:23:14;6.80;99.90
25877;DHT22;13692;47.480;19.216;2023-04-03T04:25:41;6.80;99.90
25877;DHT22;13692;47.480;19.216;2023-04-03T04:28:08;6.70;99.90
25877;DHT22;13692;47.480;19.216;2023-04-03T04:30:35;6.80;99.90
25877;DHT22;13692;47.480;19.216;2023-04-03T04:33:01;6.70;99.90
25877;DHT22;13692;47.480;19.216;2023-04-03T04:35:29;6.80;99.90
25877;DHT22;13692;47.480;19.216;2023-04-03T04:37:56;6.70;99.90
25877;DHT22;13692;47.480;19.216;2023-04-03T04:40:23;6.80;99.90
25877;DHT22;13692;47.480;19.216;2023-04-03T04:42:50;6.80;99.90
25877;DHT22;13692;47.480;19.216;2023-04-03T04:45:17;6.80;99.90
25877;DHT22;13692;47.480;19.216;2023-04-03T04:47:44;6.80;99.90
25877;DHT22;13692;47.480;19.216;2023-04-03T04:50:12;6.80;99.90
25877;DHT22;13692;47.480;19.216;2023-04-03T04:52:39;6.80;99.90
25877;DHT22;13692;47.480;19.216;2023-04-03T04:55:06;6.80;99.90
25877;DHT22;13692;47.480;19.216;2023-04-03T04:57:33;6.80;99.90
25877;DHT22;13692;47.480;19.216;2023-04-03T05:00:01;6.80;99.90
25877;DHT22;13692;47.480;19.216;2023-04-03T05:02:29;6.80;99.90
25877;DHT22;13692;47.480;19.216;2023-04-03T05:04:57;6.80;99.90
25877;DHT22;13692;47.480;19.216;2023-04-03T05:07:24;6.90;99.90
25877;DHT22;13692;47.480;19.216;2023-04-03T05:09:51;7.00;99.90
25877;DHT22;13692;47.480;19.216;2023-04-03T05:12:18;7.00;99.90
25877;DHT22;13692;47.480;19.216;2023-04-03T05:14:45;7.10;99.90
25877;DHT22;13692;47.480;19.216;2023-04-03T05:17:12;7.10;99.90
25877;DHT22;13692;47.480;19.216;2023-04-03T05:19:39;7.30;99.90
25877;DHT22;13692;47.480;19.216;2023-04-03T05:22:06;7.80;99.90
25877;DHT22;13692;47.480;19.216;2023-04-03T05:24:33;8.30;99.90
25877;DHT22;13692;47.480;19.216;2023-04-03T05:27:00;8.50;99.90
25877;DHT22;13692;47.480;19.216;2023-04-03T05:29:27;9.10;99.90
25877;DHT22;13692;47.480;19.216;2023-04-03T05:31:53;9.50;99.90
25877;DHT22;13692;47.480;19.216;2023-04-03T05:34:21;9.70;99.90
25877;DHT22;13692;47.480;19.216;2023-04-03T05:36:48;9.50;99.90
25877;DHT22;13692;47.480;19.216;2023-04-03T05:39:15;9.50;99.90
25877;DHT22;13692;47.480;19.216;2023-04-03T05:41:42;10.20;99.90
25877;DHT22;13692;47.480;19.216;2023-04-03T05:44:09;10.90;99.90
25877;DHT22;13692;47.480;19.216;2023-04-03T05:46:36;11.00;99.90
25877;DHT22;13692;47.480;19.216;2023-04-03T05:49:03;10.70;99.90
25877;DHT22;13692;47.480;19.216;2023-04-03T05:51:35;10.80;99.90
25877;DHT22;13692;47.480;19.216;2023-04-03T05:54:10;11.30;99.90
25877;DHT22;13692;47.480;19.216;2023-04-03T05:56:37;11.10;99.90
25877;DHT22;13692;47.480;19.216;2023-04-03T05:59:04;10.80;99.90
25877;DHT22;13692;47.480;19.216;2023-04-03T06:01:31;10.50;99.90
25877;DHT22;13692;47.480;19.216;2023-04-03T06:03:58;10.30;99.90
25877;DHT22;13692;47.480;19.216;2023-04-03T06:06:26;10.10;99.90
25877;DHT22;13692;47.480;19.216;2023-04-03T06:08:53;10.00;99.90
25877;DHT22;13692;47.480;19.216;2023-04-03T06:11:20;9.80;99.90
25877;DHT22;13692;47.480;19.216;2023-04-03T06:13:48;9.70;99.90
25877;DHT22;13692;47.480;19.216;2023-04-03T06:16:15;9.60;99.90
25877;DHT22;13692;47.480;19.216;2023-04-03T06:18:43;9.50;99.90
25877;DHT22;13692;47.480;19.216;2023-04-03T06:21:10;9.50;99.90
25877;DHT22;13692;47.480;19.216;2023-04-03T06:23:37;9.40;99.90
25877;DHT22;13692;47.480;19.216;2023-04-03T06:26:05;9.40;99.90
25877;DHT22;13692;47.480;19.216;2023-04-03T06:28:32;9.40;99.90
25877;DHT22;13692;47.480;19.216;2023-04-03T06:30:59;9.30;99.90
25877;DHT22;13692;47.480;19.216;2023-04-03T06:33:26;9.30;99.90
25877;DHT22;13692;47.480;19.216;2023-04-03T06:35:58;9.30;99.90
25877;DHT22;13692;47.480;19.216;2023-04-03T06:38:25;9.20;99.90
25877;DHT22;13692;47.480;19.216;2023-04-03T06:40:52;9.20;99.90
25877;DHT22;13692;47.480;19.216;2023-04-03T06:43:19;9.20;99.90
25877;DHT22;13692;47.480;19.216;2023-04-03T06:45:49;9.20;99.90
25877;DHT22;13692;47.480;19.216;2023-04-03T06:48:17;9.40;99.90
25877;DHT22;13692;47.480;19.216;2023-04-03T06:50:44;9.50;99.90
25877;DHT22;13692;47.480;19.216;2023-04-03T06:53:11;9.50;99.90
25877;DHT22;13692;47.480;19.216;2023-04-03T06:55:38;9.60;99.90
25877;DHT22;13692;47.480;19.216;2023-04-03T06:58:06;9.60;99.90
25877;DHT22;13692;47.480;19.216;2023-04-03T07:00:33;9.50;99.90
25877;DHT22;13692;47.480;19.216;2023-04-03T07:03:00;9.50;99.90
25877;DHT22;13692;47.480;19.216;2023-04-03T07:05:27;9.60;99.90
25877;DHT22;13692;47.480;19.216;2023-04-03T07:07:54;9.60;99.90
25877;DHT22;13692;47.480;19.216;2023-04-03T07:10:21;9.90;99.90
25877;DHT22;13692;47.480;19.216;2023-04-03T07:12:48;9.90;99.90
25877;DHT22;13692;47.480;19.216;2023-04-03T07:15:15;10.00;99.90
25877;DHT22;13692;47.480;19.216;2023-04-03T07:17:42;10.10;99.90
25877;DHT22;13692;47.480;19.216;2023-04-03T07:20:09;10.10;99.90
25877;DHT22;13692;47.480;19.216;2023-04-03T07:22:37;10.20;99.90
25877;DHT22;13692;47.480;19.216;2023-04-03T07:25:04;10.20;99.90
25877;DHT22;13692;47.480;19.216;2023-04-03T07:27:34;10.10;99.90
25877;DHT22;13692;47.480;19.216;2023-04-03T07:30:01;10.00;99.90
25877;DHT22;13692;47.480;19.216;2023-04-03T07:32:28;10.10;99.90
25877;DHT22;13692;47.480;19.216;2023-04-03T07:34:55;10.20;99.90
25877;DHT22;13692;47.480;19.216;2023-04-03T07:37:22;10.20;99.90
25877;DHT22;13692;47.480;19.216;2023-04-03T07:39:49;10.20;99.90
25877;DHT22;13692;47.480;19.216;2023-04-03T07:42:16;10.10;99.90
25877;DHT22;13692;47.480;19.216;2023-04-03T07:44:43;10.00;99.90
25877;DHT22;13692;47.480;19.216;2023-04-03T07:47:10;10.10;99.90
25877;DHT22;13692;47.480;19.216;2023-04-03T07:49:37;10.00;99.90
25877;DHT22;13692;47.480;19.216;2023-04-03T07:52:06;10.00;99.90
25877;DHT22;13692;47.480;19.216;2023-04-03T07:54:35;10.10;99.90
25877;DHT22;13692;47.480;19.216;2023-04-03T07:57:02;10.10;99.90
25877;DHT22;13692;47.480;19.216;2023-04-03T07:59:29;10.10;99.90
25877;DHT22;13692;47.480;19.216;2023-04-03T08:01:56;10.10;99.90
25877;DHT22;13692;47.480;19.216;2023-04-03T08:04:23;10.20;99.90
25877;DHT22;13692;47.480;19.216;2023-04-03T08:06:52;10.20;99.90
25877;DHT22;13692;47.480;19.216;2023-04-03T08:09:19;10.20;99.90
25877;DHT22;13692;47.480;19.216;2023-04-03T08:11:46;10.30;99.90
25877;DHT22;13692;47.480;19.216;2023-04-03T08:14:13;10.40;99.90
25877;DHT22;13692;47.480;19.216;2023-04-03T08:16:46;10.40;99.90
25877;DHT22;13692;47.480;19.216;2023-04-03T08:19:15;10.60;99.90
25877;DHT22;13692;47.480;19.216;2023-04-03T08:21:55;10.50;99.90
25877;DHT22;13692;47.480;19.216;2023-04-03T08:24:23;10.50;99.90
25877;DHT22;13692;47.480;19.216;2023-04-03T08:26:50;10.50;99.90
25877;DHT22;13692;47.480;19.216;2023-04-03T08:29:17;10.60;99.90
25877;DHT22;13692;47.480;19.216;2023-04-03T08:31:44;10.80;99.90
25877;DHT22;13692;47.480;19.216;2023-04-03T08:34:13;11.00;99.90
25877;DHT22;13692;47.480;19.216;2023-04-03T08:36:41;11.10;99.90
25877;DHT22;13692;47.480;19.216;2023-04-03T08:39:09;11.00;99.90
25877;DHT22;13692;47.480;19.216;2023-04-03T08:41:45;11.10;99.90
25877;DHT22;13692;47.480;19.216;2023-04-03T08:52:18;11.20;99.90
25877;DHT22;13692;47.480;19.216;2023-04-03T08:54:55;11.10;99.90
25877;DHT22;13692;47.480;19.216;2023-04-03T08:57:43;11.10;99.90
25877;DHT22;13692;47.480;19.216;2023-04-03T09:00:18;11.20;99.90
25877;DHT22;13692;47.480;19.216;2023-04-03T09:02:48;11.30;99.90
25877;DHT22;13692;47.480;19.216;2023-04-03T09:05:20;11.70;99.90
25877;DHT22;13692;47.480;19.216;2023-04-03T09:10:45;12.70;99.90
25877;DHT22;13692;47.480;19.216;2023-04-03T09:13:31;13.80;99.90
25877;DHT22;13692;47.480;19.216;2023-04-03T09:16:02;14.50;95.50
25877;DHT22;13692;47.480;19.216;2023-04-03T09:18:33;15.30;93.50
25877;DHT22;13692;47.480;19.216;2023-04-03T09:21:27;15.00;92.00
25877;DHT22;13692;47.480;19.216;2023-04-03T09:24:00;14.20;92.10
25877;DHT22;13692;47.480;19.216;2023-04-03T09:29:05;14.20;94.50
25877;DHT22;13692;47.480;19.216;2023-04-03T09:31:38;13.90;94.40
25877;DHT22;13692;47.480;19.216;2023-04-03T09:34:23;13.70;93.70
25877;DHT22;13692;47.480;19.216;2023-04-03T09:37:01;13.60;94.60
25877;DHT22;13692;47.480;19.216;2023-04-03T09:39:51;13.60;94.80
25877;DHT22;13692;47.480;19.216;2023-04-03T09:42:22;13.50;94.40
25877;DHT22;13692;47.480;19.216;2023-04-03T09:45:01;13.40;95.40
25877;DHT22;13692;47.480;19.216;2023-04-03T09:47:29;13.30;95.60
25877;DHT22;13692;47.480;19.216;2023-04-03T09:52:41;13.00;96.00
25877;DHT22;13692;47.480;19.216;2023-04-03T09:57:45;12.80;96.00
25877;DHT22;13692;47.480;19.216;2023-04-03T10:00:25;12.90;97.40
25877;DHT22;13692;47.480;19.216;2023-04-03T10:02:57;12.90;96.10
25877;DHT22;13692;47.480;19.216;2023-04-03T10:05:39;12.80;95.50
25877;DHT22;13692;47.480;19.216;2023-04-03T10:10:48;12.60;97.00
25877;DHT22;13692;47.480;19.216;2023-04-03T10:13:31;12.50;96.90
25877;DHT22;13692;47.480;19.216;2023-04-03T10:16:13;12.70;96.80
25877;DHT22;13692;47.480;19.216;2023-04-03T10:21:48;13.40;93.30
25877;DHT22;13692;47.480;19.216;2023-04-03T10:25:00;13.00;94.20
25877;DHT22;13692;47.480;19.216;2023-04-03T10:28:00;12.70;94.80
25877;DHT22;13692;47.480;19.216;2023-04-03T10:30:41;12.60;92.90
25877;DHT22;13692;47.480;19.216;2023-04-03T10:41:43;12.10;94.90
25877;DHT22;13692;47.480;19.216;2023-04-03T10:53:01;11.70;96.60
25877;DHT22;13692;47.480;19.216;2023-04-03T10:56:08;11.60;96.80
25877;DHT22;13692;47.480;19.216;2023-04-03T10:58:48;11.40;96.00
25877;DHT22;13692;47.480;19.216;2023-04-03T11:01:26;11.20;96.30
25877;DHT22;13692;47.480;19.216;2023-04-03T11:03:57;11.10;96.50
25877;DHT22;13692;47.480;19.216;2023-04-03T11:06:34;11.00;96.70
25877;DHT22;13692;47.480;19.216;2023-04-03T11:09:13;11.10;97.10
25877;DHT22;13692;47.480;19.216;2023-04-03T11:11:43;11.10;95.30
25877;DHT22;13692;47.480;19.216;2023-04-03T11:14:46;11.20;95.80
25877;DHT22;13692;47.480;19.216;2023-04-03T11:25:44;11.60;93.90
25877;DHT22;13692;47.480;19.216;2023-04-03T11:28:14;11.70;94.80
25877;DHT22;13692;47.480;19.216;2023-04-03T11:36:12;11.40;93.50
25877;DHT22;13692;47.480;19.216;2023-04-03T11:38:57;11.30;94.00
25877;DHT22;13692;47.480;19.216;2023-04-03T11:41:30;11.30;94.30
25877;DHT22;13692;47.480;19.216;2023-04-03T11:44:03;11.40;94.50
25877;DHT22;13692;47.480;19.216;2023-04-03T11:46:50;11.60;95.00
25877;DHT22;13692;47.480;19.216;2023-04-03T11:49:55;11.40;94.70
25877;DHT22;13692;47.480;19.216;2023-04-03T12:06:41;11.90;95.00
25877;DHT22;13692;47.480;19.216;2023-04-03T12:12:39;12.10;94.10
25877;DHT22;13692;47.480;19.216;2023-04-03T12:21:09;12.00;93.90
25877;DHT22;13692;47.480;19.216;2023-04-03T12:26:26;11.70;93.80
25877;DHT22;13692;47.480;19.216;2023-04-03T12:29:21;11.80;94.20
25877;DHT22;13692;47.480;19.216;2023-04-03T12:43:13;12.20;93.50
25877;DHT22;13692;47.480;19.216;2023-04-03T12:45:46;12.30;93.90
25877;DHT22;13692;47.480;19.216;2023-04-03T12:48:16;12.30;94.30
25877;DHT22;13692;47.480;19.216;2023-04-03T12:50:46;12.30;93.60
25877;DHT22;13692;47.480;19.216;2023-04-03T12:53:18;12.30;93.90
25877;DHT22;13692;47.480;19.216;2023-04-03T12:55:46;12.30;92.70
25877;DHT22;13692;47.480;19.216;2023-04-03T12:58:24;12.20;92.40
25877;DHT22;13692;47.480;19.216;2023-04-03T13:01:04;12.00;92.80
25877;DHT22;13692;47.480;19.216;2023-04-03T13:03:39;12.00;92.80
25877;DHT22;13692;47.480;19.216;2023-04-03T13:06:06;12.10;92.60
25877;DHT22;13692;47.480;19.216;2023-04-03T13:08:33;12.20;93.20
25877;DHT22;13692;47.480;19.216;2023-04-03T13:11:10;12.30;93.00
25877;DHT22;13692;47.480;19.216;2023-04-03T13:13:38;12.10;92.20
25877;DHT22;13692;47.480;19.216;2023-04-03T13:16:10;12.00;93.00
25877;DHT22;13692;47.480;19.216;2023-04-03T13:18:38;12.00;93.30
25877;DHT22;13692;47.480;19.216;2023-04-03T13:21:15;12.00;91.90
25877;DHT22;13692;47.480;19.216;2023-04-03T13:23:46;12.10;93.00
25877;DHT22;13692;47.480;19.216;2023-04-03T13:26:18;12.00;92.60
25877;DHT22;13692;47.480;19.216;2023-04-03T13:28:47;12.00;92.50
25877;DHT22;13692;47.480;19.216;2023-04-03T13:31:23;12.00;92.40
25877;DHT22;13692;47.480;19.216;2023-04-03T13:34:13;11.80;91.90
25877;DHT22;13692;47.480;19.216;2023-04-03T13:39:25;12.00;91.30
25877;DHT22;13692;47.480;19.216;2023-04-03T13:42:01;12.10;91.40
25877;DHT22;13692;47.480;19.216;2023-04-03T13:44:32;12.20;91.40
25877;DHT22;13692;47.480;19.216;2023-04-03T13:47:16;12.30;90.50
25877;DHT22;13692;47.480;19.216;2023-04-03T13:55:31;12.60;90.90
25877;DHT22;13692;47.480;19.216;2023-04-03T13:58:02;12.60;90.70
25877;DHT22;13692;47.480;19.216;2023-04-03T14:03:25;12.60;89.60
25877;DHT22;13692;47.480;19.216;2023-04-03T14:05:53;12.70;89.70
25877;DHT22;13692;47.480;19.216;2023-04-03T14:08:21;12.70;90.80
25877;DHT22;13692;47.480;19.216;2023-04-03T14:11:01;12.70;90.80
25877;DHT22;13692;47.480;19.216;2023-04-03T14:13:30;12.80;91.40
25877;DHT22;13692;47.480;19.216;2023-04-03T14:15:58;12.80;91.40
25877;DHT22;13692;47.480;19.216;2023-04-03T14:18:40;12.70;90.70
25877;DHT22;13692;47.480;19.216;2023-04-03T14:21:12;12.60;90.60
25877;DHT22;13692;47.480;19.216;2023-04-03T14:23:40;12.60;90.30
25877;DHT22;13692;47.480;19.216;2023-04-03T14:26:19;12.40;88.30
25877;DHT22;13692;47.480;19.216;2023-04-03T14:28:50;12.30;89.60
25877;DHT22;13692;47.480;19.216;2023-04-03T14:31:19;12.10;89.40
25877;DHT22;13692;47.480;19.216;2023-04-03T14:33:46;12.20;90.80
25877;DHT22;13692;47.480;19.216;2023-04-03T14:36:31;12.30;90.10
25877;DHT22;13692;47.480;19.216;2023-04-03T14:39:00;12.30;90.20
25877;DHT22;13692;47.480;19.216;2023-04-03T14:41:28;12.40;90.50
25877;DHT22;13692;47.480;19.216;2023-04-03T14:43:55;12.40;89.90
25877;DHT22;13692;47.480;19.216;2023-04-03T14:46:35;12.20;88.80
25877;DHT22;13692;47.480;19.216;2023-04-03T14:49:25;12.10;90.40
25877;DHT22;13692;47.480;19.216;2023-04-03T14:51:52;12.20;90.40
25877;DHT22;13692;47.480;19.216;2023-04-03T14:54:22;12.20;90.50
25877;DHT22;13692;47.480;19.216;2023-04-03T14:56:53;12.20;90.10
25877;DHT22;13692;47.480;19.216;2023-04-03T14:59:21;12.20;90.20
25877;DHT22;13692;47.480;19.216;2023-04-03T15:01:49;12.10;90.60
25877;DHT22;13692;47.480;19.216;2023-04-03T15:04:18;12.10;91.00
25877;DHT22;13692;47.480;19.216;2023-04-03T15:06:47;12.00;91.00
25877;DHT22;13692;47.480;19.216;2023-04-03T15:11:49;11.70;90.20
25877;DHT22;13692;47.480;19.216;2023-04-03T15:14:16;11.70;91.20
25877;DHT22;13692;47.480;19.216;2023-04-03T15:17:02;11.70;90.30
25877;DHT22;13692;47.480;19.216;2023-04-03T15:19:35;11.60;90.20
25877;DHT22;13692;47.480;19.216;2023-04-03T15:22:03;11.40;90.70
25877;DHT22;13692;47.480;19.216;2023-04-03T15:24:30;11.40;91.50
25877;DHT22;13692;47.480;19.216;2023-04-03T15:26:57;11.40;91.30
25877;DHT22;13692;47.480;19.216;2023-04-03T15:29:24;11.40;91.80
25877;DHT22;13692;47.480;19.216;2023-04-03T15:31:51;11.40;91.10
25877;DHT22;13692;47.480;19.216;2023-04-03T15:34:20;11.20;91.20
25877;DHT22;13692;47.480;19.216;2023-04-03T15:36:49;11.20;91.90
25877;DHT22;13692;47.480;19.216;2023-04-03T15:39:19;11.10;91.20
25877;DHT22;13692;47.480;19.216;2023-04-03T15:41:47;11.00;92.00
25877;DHT22;13692;47.480;19.216;2023-04-03T15:44:14;11.00;91.80
25877;DHT22;13692;47.480;19.216;2023-04-03T15:46:45;11.00;91.40
25877;DHT22;13692;47.480;19.216;2023-04-03T15:49:13;11.00;90.80
25877;DHT22;13692;47.480;19.216;2023-04-03T15:51:40;10.90;91.20
25877;DHT22;13692;47.480;19.216;2023-04-03T15:54:07;10.80;91.00
25877;DHT22;13692;47.480;19.216;2023-04-03T15:56:34;10.80;91.40
25877;DHT22;13692;47.480;19.216;2023-04-03T15:59:01;10.60;90.50
25877;DHT22;13692;47.480;19.216;2023-04-03T16:01:28;10.40;90.40
25877;DHT22;13692;47.480;19.216;2023-04-03T16:03:56;10.20;90.60
25877;DHT22;13692;47.480;19.216;2023-04-03T16:06:24;10.10;90.90
25877;DHT22;13692;47.480;19.216;2023-04-03T16:08:52;10.00;91.00
25877;DHT22;13692;47.480;19.216;2023-04-03T16:11:24;9.80;91.10
25877;DHT22;13692;47.480;19.216;2023-04-03T16:13:53;9.80;91.80
25877;DHT22;13692;47.480;19.216;2023-04-03T16:16:22;9.80;91.60
25877;DHT22;13692;47.480;19.216;2023-04-03T16:18:50;9.60;91.00
25877;DHT22;13692;47.480;19.216;2023-04-03T16:21:17;9.50;91.70
25877;DHT22;13692;47.480;19.216;2023-04-03T16:23:44;9.40;91.60
25877;DHT22;13692;47.480;19.216;2023-04-03T16:26:12;9.30;91.40
25877;DHT22;13692;47.480;19.216;2023-04-03T16:28:39;9.20;91.40
25877;DHT22;13692;47.480;19.216;2023-04-03T16:31:07;9.20;92.00
25877;DHT22;13692;47.480;19.216;2023-04-03T16:33:34;9.20;91.50
25877;DHT22;13692;47.480;19.216;2023-04-03T16:36:04;9.20;91.70
25877;DHT22;13692;47.480;19.216;2023-04-03T16:38:31;9.20;91.60
25877;DHT22;13692;47.480;19.216;2023-04-03T16:40:58;9.10;91.70
25877;DHT22;13692;47.480;19.216;2023-04-03T16:43:26;9.00;91.80
25877;DHT22;13692;47.480;19.216;2023-04-03T16:45:53;9.00;91.50
25877;DHT22;13692;47.480;19.216;2023-04-03T16:48:20;8.90;91.90
25877;DHT22;13692;47.480;19.216;2023-04-03T16:50:48;8.80;91.50
25877;DHT22;13692;47.480;19.216;2023-04-03T16:53:17;8.80;92.00
25877;DHT22;13692;47.480;19.216;2023-04-03T16:55:45;8.80;92.10
25877;DHT22;13692;47.480;19.216;2023-04-03T16:58:12;8.70;92.20
25877;DHT22;13692;47.480;19.216;2023-04-03T17:00:39;8.70;92.00
25877;DHT22;13692;47.480;19.216;2023-04-03T17:03:06;8.70;91.80
25877;DHT22;13692;47.480;19.216;2023-04-03T17:05:33;8.60;92.20
25877;DHT22;13692;47.480;19.216;2023-04-03T17:08:00;8.60;92.30
25877;DHT22;13692;47.480;19.216;2023-04-03T17:10:28;8.60;92.50
25877;DHT22;13692;47.480;19.216;2023-04-03T17:12:55;8.60;92.20
25877;DHT22;13692;47.480;19.216;2023-04-03T17:15:23;8.50;92.40
25877;DHT22;13692;47.480;19.216;2023-04-03T17:17:51;8.50;92.40
25877;DHT22;13692;47.480;19.216;2023-04-03T17:20:19;8.40;92.80
25877;DHT22;13692;47.480;19.216;2023-04-03T17:22:47;8.50;93.40
25877;DHT22;13692;47.480;19.216;2023-04-03T17:25:14;8.50;93.00
25877;DHT22;13692;47.480;19.216;2023-04-03T17:27:41;8.60;93.10
25877;DHT22;13692;47.480;19.216;2023-04-03T17:30:10;8.50;93.00
25877;DHT22;13692;47.480;19.216;2023-04-03T17:32:37;8.50;93.40